Time;durP1;ratioP1;P1;durP2;ratioP2;P2;SDS_P1;SDS_P2;PMS_P1;PMS_P2;Temp;Humidity;BMP_temperature;BMP_pressure;BME280_temperature;BME280_humidity;BME280_pressure;Samples;Min_cycle;Max_cycle;Signal;HPM_P1;HPM_P2
2022/11/30 00:00:25;;;;;;;5.70;2.20;;;;;;;;;;1751910;80;21052;-51
2022/11/30 00:02:55;;;;;;;4.17;1.80;;;;;;;;;;1736885;80;21051;-50
2022/11/30 00:05:21;;;;;;;5.60;2.20;;;;;;;;;;1721674;80;21130;-53
2022/11/30 00:07:49;;;;;;;3.27;1.47;;;;;;;;;;1742636;79;21060;-51
2022/11/30 00:10:15;;;;;;;4.07;1.90;;;;;;;;;;1748323;79;21942;-50
2022/11/30 00:12:42;;;;;;;5.23;2.23;;;;;;;;;;1740731;79;21047;-51
2022/11/30 00:15:13;;;;;;;4.27;2.67;;;;;;;;;;1743943;79;21573;-51
2022/11/30 00:17:40;;;;;;;6.23;2.50;;;;;;;;;;1742878;79;21056;-50
2022/11/30 00:20:07;;;;;;;6.03;1.83;;;;;;;;;;1748408;80;20998;-51
2022/11/30 00:22:33;;;;;;;2.97;1.80;;;;;;;;;;1737410;80;21839;-50
2022/11/30 00:25:01;;;;;;;4.73;1.67;;;;;;;;;;1734122;80;21580;-52
2022/11/30 00:27:28;;;;;;;2.53;1.50;;;;;;;;;;1738882;80;21140;-51
2022/11/30 00:29:55;;;;;;;4.13;1.40;;;;;;;;;;1738851;80;21056;-52
2022/11/30 00:32:21;;;;;;;3.37;1.70;;;;;;;;;;1736260;80;21652;-55
2022/11/30 00:34:47;;;;;;;2.90;1.60;;;;;;;;;;1749635;80;21840;-51
2022/11/30 00:37:13;;;;;;;6.53;2.50;;;;;;;;;;1739104;80;21048;-54
2022/11/30 00:39:40;;;;;;;2.90;1.07;;;;;;;;;;1751392;80;21039;-55
2022/11/30 00:44:46;;;;;;;8.63;3.67;;;;;;;;;;1796653;78;27400;-52
2022/11/30 00:47:12;;;;;;;7.93;3.47;;;;;;;;;;1774443;79;21573;-53
2022/11/30 00:49:38;;;;;;;10.23;4.23;;;;;;;;;;1774242;79;21254;-52
2022/11/30 00:52:05;;;;;;;16.13;6.60;;;;;;;;;;1775633;79;21971;-50
2022/11/30 00:54:31;;;;;;;10.30;4.00;;;;;;;;;;1774997;79;21438;-50
2022/11/30 00:56:57;;;;;;;12.73;4.17;;;;;;;;;;1776310;79;21476;-49
2022/11/30 00:59:24;;;;;;;10.97;3.70;;;;;;;;;;1778084;79;21052;-50
2022/11/30 01:01:53;;;;;;;6.73;3.13;;;;;;;;;;1772140;80;22516;-54
2022/11/30 01:04:19;;;;;;;7.03;2.80;;;;;;;;;;1775005;79;21032;-53
2022/11/30 01:06:45;;;;;;;6.73;2.40;;;;;;;;;;1775052;79;21045;-49
2022/11/30 01:09:11;;;;;;;3.10;2.00;;;;;;;;;;1772960;79;21056;-54
2022/11/30 01:11:39;;;;;;;2.43;1.60;;;;;;;;;;1773073;79;21076;-51
2022/11/30 01:14:05;;;;;;;2.33;1.30;;;;;;;;;;1772244;79;21816;-53
2022/11/30 01:16:33;;;;;;;2.43;1.47;;;;;;;;;;1773191;79;21089;-53
2022/11/30 01:18:59;;;;;;;2.67;1.20;;;;;;;;;;1774433;79;21751;-50
2022/11/30 01:21:26;;;;;;;6.00;1.50;;;;;;;;;;1772675;79;21039;-50
2022/11/30 01:23:54;;;;;;;4.97;1.97;;;;;;;;;;1769012;79;21478;-52
2022/11/30 01:26:21;;;;;;;4.80;1.40;;;;;;;;;;1771539;79;21776;-56
2022/11/30 01:28:51;;;;;;;2.67;1.30;;;;;;;;;;1777194;79;21010;-51
2022/11/30 01:31:17;;;;;;;3.93;1.33;;;;;;;;;;1771001;79;21073;-55
2022/11/30 01:33:49;;;;;;;1.93;1.10;;;;;;;;;;1774341;79;21096;-53
2022/11/30 01:36:19;;;;;;;2.53;1.00;;;;;;;;;;1775058;79;21084;-56
2022/11/30 01:38:47;;;;;;;2.80;1.17;;;;;;;;;;1773891;79;23110;-51
2022/11/30 01:41:16;;;;;;;2.83;1.50;;;;;;;;;;1746278;81;21120;-53
2022/11/30 01:43:45;;;;;;;2.33;1.23;;;;;;;;;;1740362;80;21606;-51
2022/11/30 01:46:40;;;;;;;4.83;1.60;;;;;;;;;;1737455;81;21462;-55
2022/11/30 01:49:18;;;;;;;6.40;1.40;;;;;;;;;;1738578;81;21075;-53
2022/11/30 01:51:50;;;;;;;5.33;1.53;;;;;;;;;;1736758;81;21829;-51
2022/11/30 01:54:19;;;;;;;2.93;1.47;;;;;;;;;;1735530;81;21037;-50
2022/11/30 01:56:48;;;;;;;3.40;1.20;;;;;;;;;;1738695;81;21049;-51
2022/11/30 01:59:14;;;;;;;3.13;1.40;;;;;;;;;;1740552;81;21070;-52
2022/11/30 02:01:40;;;;;;;3.70;1.30;;;;;;;;;;1739122;81;21542;-52
2022/11/30 02:04:16;;;;;;;2.07;1.37;;;;;;;;;;1739635;81;21943;-54
2022/11/30 02:06:42;;;;;;;3.70;1.27;;;;;;;;;;1717592;81;21560;-50
2022/11/30 02:09:08;;;;;;;3.50;1.33;;;;;;;;;;1734722;81;21120;-51
2022/11/30 02:11:35;;;;;;;5.40;1.20;;;;;;;;;;1741990;81;21195;-53
2022/11/30 02:14:20;;;;;;;4.17;1.10;;;;;;;;;;1734160;81;21431;-52
2022/11/30 02:16:53;;;;;;;3.87;1.37;;;;;;;;;;1736305;81;21835;-51
2022/11/30 02:19:35;;;;;;;6.23;1.30;;;;;;;;;;1736102;81;21050;-54
2022/11/30 02:22:40;;;;;;;5.40;2.23;;;;;;;;;;1738324;81;21119;-51
2022/11/30 02:25:25;;;;;;;12.65;2.87;;;;;;;;;;1739417;81;21041;-52
2022/11/30 02:27:53;;;;;;;;;;;;;;;;;;1678884;83;21057;-51
2022/11/30 02:30:20;;;;;;;9.63;3.73;;;;;;;;;;1705640;82;21930;-51
2022/11/30 02:32:57;;;;;;;5.73;2.30;;;;;;;;;;1678458;84;21054;-51
2022/11/30 02:35:26;;;;;;;7.50;2.23;;;;;;;;;;1738848;81;21499;-52
2022/11/30 02:37:53;;;;;;;11.60;4.60;;;;;;;;;;1737167;81;21059;-53
2022/11/30 02:40:19;;;;;;;9.03;3.10;;;;;;;;;;1741038;81;22150;-51
2022/11/30 02:42:47;;;;;;;8.37;3.93;;;;;;;;;;1740594;80;21844;-52
2022/11/30 02:45:13;;;;;;;4.33;1.53;;;;;;;;;;1738062;81;21038;-51
2022/11/30 02:47:45;;;;;;;6.17;1.57;;;;;;;;;;1736312;81;21517;-54
2022/11/30 02:50:14;;;;;;;4.40;1.77;;;;;;;;;;1734466;81;21577;-51
2022/11/30 02:52:41;;;;;;;6.43;1.10;;;;;;;;;;1736224;81;21065;-51
2022/11/30 02:55:09;;;;;;;3.97;1.67;;;;;;;;;;1739059;81;21926;-53
2022/11/30 02:57:35;;;;;;;5.10;1.10;;;;;;;;;;1739771;81;21110;-56
2022/11/30 03:00:05;;;;;;;4.20;1.20;;;;;;;;;;1738191;81;21563;-56
2022/11/30 03:02:32;;;;;;;5.17;1.33;;;;;;;;;;1739860;81;21452;-56
2022/11/30 03:04:58;;;;;;;3.47;1.17;;;;;;;;;;1736175;81;22288;-56
2022/11/30 03:07:24;;;;;;;2.40;1.00;;;;;;;;;;1738014;81;21856;-55
2022/11/30 03:09:50;;;;;;;6.77;1.27;;;;;;;;;;1735388;81;21113;-56
2022/11/30 03:12:16;;;;;;;3.47;0.80;;;;;;;;;;1740060;81;21031;-56
2022/11/30 03:14:43;;;;;;;1.67;0.70;;;;;;;;;;1741499;81;21609;-55
2022/11/30 03:17:09;;;;;;;1.73;0.90;;;;;;;;;;1739804;80;21198;-57
2022/11/30 03:19:35;;;;;;;2.07;0.80;;;;;;;;;;1737358;81;21754;-57
2022/11/30 03:22:01;;;;;;;2.63;0.70;;;;;;;;;;1739848;81;21011;-56
2022/11/30 03:24:28;;;;;;;3.23;0.80;;;;;;;;;;1733432;81;22050;-55
2022/11/30 03:26:54;;;;;;;2.33;0.73;;;;;;;;;;1680452;83;21061;-54
2022/11/30 03:29:20;;;;;;;1.70;0.83;;;;;;;;;;1681123;83;21124;-55
2022/11/30 03:31:46;;;;;;;2.90;0.60;;;;;;;;;;1738069;81;22452;-56
2022/11/30 03:34:12;;;;;;;1.73;0.73;;;;;;;;;;1739000;81;21096;-56
2022/11/30 03:36:39;;;;;;;2.63;0.90;;;;;;;;;;1740469;81;21042;-56
2022/11/30 03:39:05;;;;;;;1.13;0.60;;;;;;;;;;1736196;81;21033;-55
2022/11/30 03:41:31;;;;;;;2.80;0.80;;;;;;;;;;1737149;81;21539;-55
2022/11/30 03:43:57;;;;;;;1.10;0.70;;;;;;;;;;1738377;81;21898;-55
2022/11/30 03:46:25;;;;;;;4.47;0.90;;;;;;;;;;1729971;81;21077;-56
2022/11/30 03:48:52;;;;;;;2.07;0.80;;;;;;;;;;1730820;82;21026;-54
2022/11/30 03:51:18;;;;;;;1.73;0.70;;;;;;;;;;1732742;82;21691;-55
2022/11/30 03:53:44;;;;;;;2.67;0.80;;;;;;;;;;1736111;82;21052;-56
2022/11/30 03:56:10;;;;;;;1.70;0.90;;;;;;;;;;1731370;82;22644;-55
2022/11/30 03:58:37;;;;;;;2.67;0.80;;;;;;;;;;1734739;82;21256;-55
2022/11/30 04:01:08;;;;;;;1.73;0.60;;;;;;;;;;1730828;82;21522;-56
2022/11/30 04:03:35;;;;;;;1.00;0.70;;;;;;;;;;1730577;82;21314;-56
2022/11/30 04:06:01;;;;;;;1.30;0.70;;;;;;;;;;1672098;84;21539;-55
2022/11/30 04:08:27;;;;;;;2.10;0.80;;;;;;;;;;1733501;82;21831;-56
2022/11/30 04:10:54;;;;;;;1.90;0.80;;;;;;;;;;1730606;82;21045;-56
2022/11/30 04:13:21;;;;;;;1.20;0.70;;;;;;;;;;1730394;82;21522;-55
2022/11/30 04:15:47;;;;;;;2.30;0.80;;;;;;;;;;1727170;82;22520;-54
2022/11/30 04:18:14;;;;;;;2.90;0.70;;;;;;;;;;1731365;82;21050;-54
2022/11/30 04:20:40;;;;;;;1.67;1.20;;;;;;;;;;1734575;80;21936;-57
2022/11/30 04:23:08;;;;;;;1.30;0.70;;;;;;;;;;1729990;82;20988;-56
2022/11/30 04:25:36;;;;;;;1.70;0.70;;;;;;;;;;1731424;82;21022;-57
2022/11/30 04:28:03;;;;;;;1.60;0.80;;;;;;;;;;1727686;81;21094;-56
2022/11/30 04:30:29;;;;;;;2.53;0.83;;;;;;;;;;1732153;82;21848;-56
2022/11/30 04:32:55;;;;;;;1.30;0.70;;;;;;;;;;1727212;82;21883;-54
2022/11/30 04:37:23;;;;;;;1.80;0.80;;;;;;;;;;1790028;77;27365;-55
2022/11/30 04:39:49;;;;;;;1.93;0.87;;;;;;;;;;1780463;78;22225;-53
2022/11/30 04:42:16;;;;;;;8.17;1.20;;;;;;;;;;1765472;79;21857;-55
2022/11/30 04:44:42;;;;;;;2.17;0.90;;;;;;;;;;1768569;78;21112;-56
2022/11/30 04:47:10;;;;;;;2.67;0.97;;;;;;;;;;1777399;78;21136;-55
2022/11/30 04:49:36;;;;;;;2.00;0.90;;;;;;;;;;1772826;78;21075;-54
2022/11/30 04:52:02;;;;;;;4.73;1.20;;;;;;;;;;1764992;78;21531;-54
2022/11/30 04:54:29;;;;;;;4.73;1.10;;;;;;;;;;1773391;78;21820;-53
2022/11/30 04:56:55;;;;;;;5.60;0.80;;;;;;;;;;1771712;78;21109;-53
2022/11/30 04:59:21;;;;;;;2.20;0.90;;;;;;;;;;1776374;79;21671;-56
2022/11/30 05:01:48;;;;;;;2.93;0.90;;;;;;;;;;1769395;78;21065;-54
2022/11/30 05:04:14;;;;;;;2.90;0.90;;;;;;;;;;1768434;78;21064;-54
2022/11/30 05:06:40;;;;;;;4.27;1.00;;;;;;;;;;1770038;78;22874;-55
2022/11/30 05:09:06;;;;;;;4.43;1.20;;;;;;;;;;1768499;78;21068;-55
2022/11/30 05:11:34;;;;;;;1.63;0.93;;;;;;;;;;1767997;78;21041;-54
2022/11/30 05:14:00;;;;;;;3.13;1.10;;;;;;;;;;1770675;79;21087;-55
2022/11/30 05:16:26;;;;;;;7.63;2.73;;;;;;;;;;1771096;78;21107;-55
2022/11/30 05:18:52;;;;;;;5.20;2.37;;;;;;;;;;1763754;78;22602;-55
2022/11/30 05:21:18;;;;;;;3.00;1.37;;;;;;;;;;1770342;78;21513;-55
2022/11/30 05:23:46;;;;;;;2.60;1.00;;;;;;;;;;1767933;78;21418;-56
2022/11/30 05:26:13;;;;;;;2.13;1.10;;;;;;;;;;1766376;78;21088;-55
2022/11/30 05:28:39;;;;;;;4.87;1.20;;;;;;;;;;1769617;78;21046;-54
2022/11/30 05:31:05;;;;;;;6.90;2.47;;;;;;;;;;1769932;78;21835;-56
2022/11/30 05:33:32;;;;;;;6.30;2.53;;;;;;;;;;1773240;78;21161;-54
2022/11/30 05:35:58;;;;;;;4.33;2.43;;;;;;;;;;1768461;78;21039;-54
2022/11/30 05:38:24;;;;;;;5.20;2.20;;;;;;;;;;1751801;79;21077;-54
2022/11/30 05:40:50;;;;;;;9.93;4.50;;;;;;;;;;1756337;79;21670;-53
2022/11/30 05:43:18;;;;;;;6.40;3.10;;;;;;;;;;1754166;80;21017;-55
2022/11/30 05:45:44;;;;;;;10.53;2.57;;;;;;;;;;1756113;79;21086;-53
2022/11/30 05:48:10;;;;;;;7.37;2.20;;;;;;;;;;1756751;80;21077;-55
2022/11/30 05:50:36;;;;;;;8.90;2.63;;;;;;;;;;1755463;79;21487;-53
2022/11/30 05:53:02;;;;;;;5.07;1.73;;;;;;;;;;1758039;79;21074;-53
2022/11/30 05:55:31;;;;;;;6.00;2.50;;;;;;;;;;1755633;80;21879;-55
2022/11/30 05:57:57;;;;;;;7.17;1.33;;;;;;;;;;1756143;79;21092;-56
2022/11/30 06:00:23;;;;;;;4.63;1.10;;;;;;;;;;1759501;79;21106;-53
2022/11/30 06:02:54;;;;;;;2.90;1.20;;;;;;;;;;1754276;79;21073;-55
2022/11/30 06:05:21;;;;;;;4.70;1.30;;;;;;;;;;1758113;79;21552;-53
2022/11/30 06:07:47;;;;;;;2.50;1.17;;;;;;;;;;1757872;79;21822;-56
2022/11/30 06:10:14;;;;;;;3.83;1.20;;;;;;;;;;1757287;79;20992;-55
2022/11/30 06:12:40;;;;;;;3.33;0.93;;;;;;;;;;1753271;79;21550;-53
2022/11/30 06:15:07;;;;;;;5.10;2.00;;;;;;;;;;1758602;80;21022;-55
2022/11/30 06:17:36;;;;;;;4.50;1.80;;;;;;;;;;1758099;79;21033;-55
2022/11/30 06:20:01;;;;;;;6.93;1.87;;;;;;;;;;1756022;80;22848;-56
2022/11/30 06:22:28;;;;;;;4.03;1.60;;;;;;;;;;1753641;80;21081;-54
2022/11/30 06:24:54;;;;;;;4.07;1.73;;;;;;;;;;1737506;80;21055;-53
2022/11/30 06:27:21;;;;;;;2.97;1.63;;;;;;;;;;1756400;80;21040;-55
2022/11/30 06:29:48;;;;;;;6.27;1.87;;;;;;;;;;1752514;79;21132;-55
2022/11/30 06:32:14;;;;;;;4.20;1.27;;;;;;;;;;1759106;79;22657;-55
2022/11/30 06:34:40;;;;;;;2.10;1.30;;;;;;;;;;1757438;79;21666;-53
2022/11/30 06:37:06;;;;;;;1.17;0.77;;;;;;;;;;1748420;80;21112;-55
2022/11/30 06:39:32;;;;;;;3.67;1.10;;;;;;;;;;1749488;79;21620;-55
2022/11/30 06:41:59;;;;;;;1.20;0.80;;;;;;;;;;1750353;79;21034;-56
2022/11/30 06:44:26;;;;;;;2.63;0.90;;;;;;;;;;1752908;79;21838;-55
2022/11/30 06:46:52;;;;;;;2.40;0.80;;;;;;;;;;1754376;79;21073;-55
2022/11/30 06:49:18;;;;;;;2.97;0.80;;;;;;;;;;1750795;79;21041;-55
2022/11/30 06:51:45;;;;;;;1.57;1.00;;;;;;;;;;1752902;79;21079;-56
2022/11/30 06:56:57;;;;;;;1.97;1.07;;;;;;;;;;1775253;78;27436;-56
2022/11/30 06:59:23;;;;;;;7.90;1.63;;;;;;;;;;1757686;80;21691;-55
2022/11/30 07:01:49;;;;;;;5.33;1.13;;;;;;;;;;1752439;80;21824;-57
2022/11/30 07:04:16;;;;;;;16.70;3.70;;;;;;;;;;1750323;80;21070;-57
2022/11/30 07:06:43;;;;;;;10.10;2.77;;;;;;;;;;1750990;80;21561;-57
2022/11/30 07:09:10;;;;;;;20.00;6.90;;;;;;;;;;1752300;80;21139;-57
2022/11/30 07:11:36;;;;;;;25.60;6.43;;;;;;;;;;1750678;80;21490;-56
2022/11/30 07:14:03;;;;;;;20.17;6.23;;;;;;;;;;1749057;80;22346;-56
2022/11/30 07:16:29;;;;;;;13.50;4.87;;;;;;;;;;1748181;80;21045;-57
2022/11/30 07:18:55;;;;;;;8.20;1.60;;;;;;;;;;1747987;80;21100;-55
2022/11/30 07:21:22;;;;;;;8.57;2.77;;;;;;;;;;1747777;80;21395;-55
2022/11/30 07:26:32;;;;;;;6.15;2.17;;;;;;;;;;1750259;80;21800;-57
2022/11/30 07:28:59;;;;;;;4.10;1.73;;;;;;;;;;1749271;80;21065;-56
2022/11/30 07:31:29;;;;;;;7.53;2.67;;;;;;;;;;1749884;80;21692;-55
2022/11/30 07:33:57;;;;;;;5.17;2.13;;;;;;;;;;1755830;80;21101;-54
2022/11/30 07:36:25;;;;;;;7.23;1.30;;;;;;;;;;1747148;80;21041;-55
2022/11/30 07:38:51;;;;;;;2.20;1.50;;;;;;;;;;1745588;80;22118;-55
2022/11/30 07:41:18;;;;;;;5.90;2.57;;;;;;;;;;1733257;80;21728;-55
2022/11/30 07:43:44;;;;;;;5.00;2.27;;;;;;;;;;1734620;80;21061;-55
2022/11/30 07:46:11;;;;;;;6.67;2.47;;;;;;;;;;1731581;80;21061;-56
2022/11/30 07:48:37;;;;;;;6.07;2.83;;;;;;;;;;1738119;80;21339;-57
2022/11/30 07:51:18;;;;;;;6.93;2.00;;;;;;;;;;1735136;80;21876;-57
2022/11/30 07:53:44;;;;;;;2.53;1.80;;;;;;;;;;1734881;80;21030;-55
2022/11/30 07:56:12;;;;;;;5.43;1.90;;;;;;;;;;1740709;80;21057;-55
2022/11/30 07:58:38;;;;;;;3.43;1.80;;;;;;;;;;1738621;80;21089;-57
2022/11/30 08:01:06;;;;;;;2.80;1.40;;;;;;;;;;1739018;80;21066;-57
2022/11/30 08:03:35;;;;;;;4.80;1.30;;;;;;;;;;1735439;80;20974;-56
2022/11/30 08:06:06;;;;;;;5.93;1.60;;;;;;;;;;1743814;80;21101;-58
2022/11/30 08:08:33;;;;;;;5.00;1.00;;;;;;;;;;1736151;80;21546;-57
2022/11/30 08:10:59;;;;;;;4.10;1.63;;;;;;;;;;1732561;80;21558;-57
2022/11/30 08:13:25;;;;;;;2.83;1.53;;;;;;;;;;1740813;80;21056;-55
2022/11/30 08:15:52;;;;;;;3.83;1.27;;;;;;;;;;1734283;80;21822;-58
2022/11/30 08:18:18;;;;;;;5.47;1.90;;;;;;;;;;1734163;80;21377;-58
2022/11/30 08:20:44;;;;;;;4.80;1.40;;;;;;;;;;1739124;80;21438;-58
2022/11/30 08:23:11;;;;;;;3.07;1.30;;;;;;;;;;1732386;80;21329;-58
2022/11/30 08:25:37;;;;;;;4.67;1.30;;;;;;;;;;1734176;80;21066;-58
2022/11/30 08:28:04;;;;;;;3.53;1.40;;;;;;;;;;1735602;80;24210;-55
2022/11/30 08:30:30;;;;;;;3.83;2.00;;;;;;;;;;1735547;80;21112;-57
2022/11/30 08:32:56;;;;;;;4.13;1.67;;;;;;;;;;1739338;80;21072;-57
2022/11/30 08:35:22;;;;;;;6.90;2.03;;;;;;;;;;1739140;80;21479;-55
2022/11/30 08:37:48;;;;;;;6.77;2.67;;;;;;;;;;1737015;80;21511;-55
2022/11/30 08:40:15;;;;;;;4.83;2.70;;;;;;;;;;1731982;80;21748;-55
2022/11/30 08:42:41;;;;;;;3.87;2.17;;;;;;;;;;1737108;80;21029;-57
2022/11/30 08:45:08;;;;;;;4.57;2.67;;;;;;;;;;1736843;80;21069;-56
2022/11/30 08:47:34;;;;;;;3.63;1.80;;;;;;;;;;1737742;80;21097;-58
2022/11/30 08:50:00;;;;;;;3.50;1.67;;;;;;;;;;1737641;80;21360;-57
2022/11/30 08:52:26;;;;;;;2.70;1.53;;;;;;;;;;1733656;80;21829;-58
2022/11/30 08:54:53;;;;;;;4.50;1.47;;;;;;;;;;1737387;80;21088;-57
2022/11/30 08:57:20;;;;;;;2.63;1.40;;;;;;;;;;1728878;81;21045;-55
2022/11/30 08:59:46;;;;;;;2.70;1.30;;;;;;;;;;1723576;81;21086;-54
2022/11/30 09:02:16;;;;;;;5.37;2.67;;;;;;;;;;1720029;81;21077;-58
2022/11/30 09:04:41;;;;;;;2.63;1.63;;;;;;;;;;1723244;81;22641;-56
2022/11/30 09:07:08;;;;;;;3.30;1.50;;;;;;;;;;1726765;81;22357;-57
2022/11/30 09:09:35;;;;;;;3.17;1.20;;;;;;;;;;1726565;81;21062;-57
2022/11/30 09:12:01;;;;;;;8.30;1.73;;;;;;;;;;1724028;81;21123;-55
2022/11/30 09:14:28;;;;;;;3.77;1.80;;;;;;;;;;1724659;81;21370;-58
2022/11/30 09:16:54;;;;;;;4.00;1.90;;;;;;;;;;1724813;81;21837;-57
2022/11/30 09:19:20;;;;;;;4.70;1.47;;;;;;;;;;1724038;81;21077;-55
2022/11/30 09:21:46;;;;;;;2.73;1.50;;;;;;;;;;1722376;81;21356;-57
2022/11/30 09:24:12;;;;;;;5.03;1.60;;;;;;;;;;1728473;81;21054;-55
2022/11/30 09:26:38;;;;;;;5.53;1.53;;;;;;;;;;1726779;81;21060;-57
2022/11/30 09:29:05;;;;;;;6.67;2.73;;;;;;;;;;1721752;81;21881;-57
2022/11/30 09:31:31;;;;;;;4.93;2.17;;;;;;;;;;1723844;81;21517;-57
2022/11/30 09:33:57;;;;;;;3.93;1.50;;;;;;;;;;1722527;81;21107;-57
2022/11/30 09:36:26;;;;;;;3.37;1.30;;;;;;;;;;1718504;81;21074;-58
2022/11/30 09:38:52;;;;;;;6.17;1.70;;;;;;;;;;1722242;81;21142;-57
2022/11/30 09:41:55;;;;;;;5.60;1.30;;;;;;;;;;1728571;81;21777;-58
2022/11/30 09:44:42;;;;;;;3.30;1.47;;;;;;;;;;1699811;81;21336;-58
2022/11/30 09:47:37;;;;;;;3.43;1.60;;;;;;;;;;1722462;81;21054;-53
2022/11/30 09:50:06;;;;;;;8.93;2.20;;;;;;;;;;1721788;81;21137;-54
2022/11/30 09:52:35;;;;;;;3.23;1.73;;;;;;;;;;1720230;81;20983;-56
2022/11/30 09:55:05;;;;;;;6.83;1.60;;;;;;;;;;1725267;81;21899;-57
2022/11/30 09:57:46;;;;;;;5.97;1.43;;;;;;;;;;1723053;81;21026;-55
2022/11/30 10:00:16;;;;;;;4.33;1.70;;;;;;;;;;1722055;81;21055;-54
2022/11/30 10:02:43;;;;;;;3.43;1.70;;;;;;;;;;1723584;81;21059;-56
2022/11/30 10:05:19;;;;;;;3.30;1.87;;;;;;;;;;1722075;82;21717;-55
2022/11/30 10:08:17;;;;;;;5.47;1.70;;;;;;;;;;1726059;81;21831;-56
2022/11/30 10:11:05;;;;;;;5.60;1.70;;;;;;;;;;1720077;81;21065;-55
2022/11/30 10:13:52;;;;;;;6.70;2.53;;;;;;;;;;1706806;81;21090;-56
2022/11/30 10:16:22;;;;;;;3.77;2.07;;;;;;;;;;1660706;81;21034;-56
2022/11/30 10:19:12;;;;;;;3.87;1.67;;;;;;;;;;1699363;81;21076;-55
2022/11/30 10:21:58;;;;;;;5.87;1.70;;;;;;;;;;1727215;81;21823;-56
2022/11/30 10:24:46;;;;;;;5.43;2.20;;;;;;;;;;1722772;81;21367;-57
2022/11/30 10:27:17;;;;;;;4.97;2.07;;;;;;;;;;1675719;81;21059;-55
2022/11/30 10:29:43;;;;;;;6.07;2.77;;;;;;;;;;1724435;81;21081;-54
2022/11/30 10:32:18;;;;;;;4.13;1.97;;;;;;;;;;1726509;81;21097;-55
2022/11/30 10:34:54;;;;;;;5.93;2.53;;;;;;;;;;1722697;81;23370;-56
2022/11/30 10:37:23;;;;;;;6.70;2.30;;;;;;;;;;1718982;81;21046;-56
2022/11/30 10:39:58;;;;;;;3.83;2.43;;;;;;;;;;1730046;81;21026;-55
2022/11/30 10:42:33;;;;;;;4.40;1.90;;;;;;;;;;1727623;81;21040;-56
2022/11/30 10:45:13;;;;;;;6.03;2.60;;;;;;;;;;1724338;81;21321;-56
2022/11/30 10:47:55;;;;;;;5.17;1.70;;;;;;;;;;1727497;81;21994;-56
2022/11/30 10:50:22;;;;;;;3.33;1.73;;;;;;;;;;1727560;81;21038;-54
2022/11/30 10:52:53;;;;;;;3.77;1.70;;;;;;;;;;1730157;81;21065;-54
2022/11/30 10:55:21;;;;;;;5.73;2.63;;;;;;;;;;1722532;81;21729;-56
2022/11/30 10:57:49;;;;;;;8.03;3.63;;;;;;;;;;1729977;81;21055;-56
2022/11/30 11:00:17;;;;;;;6.50;2.80;;;;;;;;;;1735796;80;21890;-56
2022/11/30 11:02:45;;;;;;;7.30;2.20;;;;;;;;;;1737972;80;21688;-55
2022/11/30 11:05:24;;;;;;;5.33;1.83;;;;;;;;;;1737370;80;21121;-54
2022/11/30 11:07:53;;;;;;;8.00;2.23;;;;;;;;;;1738448;80;21061;-55
2022/11/30 11:10:29;;;;;;;5.73;1.90;;;;;;;;;;1738741;80;21112;-55
2022/11/30 11:12:55;;;;;;;7.57;2.07;;;;;;;;;;1732081;80;21607;-55
2022/11/30 11:15:26;;;;;;;7.37;2.07;;;;;;;;;;1737254;80;21041;-55
2022/11/30 11:17:55;;;;;;;4.60;2.10;;;;;;;;;;1739310;80;21089;-55
2022/11/30 11:20:35;;;;;;;6.23;2.23;;;;;;;;;;1735778;80;21737;-55
2022/11/30 11:23:02;;;;;;;9.07;3.47;;;;;;;;;;1737866;80;21113;-54
2022/11/30 11:27:52;;;;;;;11.13;2.90;;;;;;;;;;1792569;77;27417;-56
2022/11/30 11:30:25;;;;;;;4.90;2.33;;;;;;;;;;1771330;78;21881;-56
2022/11/30 11:35:42;;;;;;;8.70;3.20;;;;;;;;;;1857093;74;27468;-54
2022/11/30 11:38:24;;;;;;;9.13;3.87;;;;;;;;;;1833375;76;21006;-53
2022/11/30 11:41:04;;;;;;;11.43;2.60;;;;;;;;;;1793991;77;21446;-55
2022/11/30 11:43:31;;;;;;;6.10;2.97;;;;;;;;;;1788335;78;21032;-54
2022/11/30 11:46:04;;;;;;;6.83;2.77;;;;;;;;;;1753301;80;21636;-55
2022/11/30 11:48:40;;;;;;;4.27;1.90;;;;;;;;;;1759094;80;22231;-54
2022/11/30 11:51:08;;;;;;;6.47;2.17;;;;;;;;;;1754455;80;21154;-54
2022/11/30 11:53:50;;;;;;;8.03;1.97;;;;;;;;;;1721829;81;21791;-54
2022/11/30 11:56:25;;;;;;;6.93;2.83;;;;;;;;;;1755721;79;21092;-55
2022/11/30 11:59:10;;;;;;;5.20;2.27;;;;;;;;;;1722839;81;22370;-54
2022/11/30 12:01:38;;;;;;;;;;;;;;;;;;1755158;79;21163;-55
2022/11/30 12:04:14;;;;;;;9.33;1.70;;;;;;;;;;1748173;80;20352;-54
2022/11/30 12:06:40;;;;;;;8.30;2.03;;;;;;;;;;1735671;80;21862;-54
2022/11/30 12:09:12;;;;;;;4.90;1.80;;;;;;;;;;1750682;80;21042;-54
2022/11/30 12:11:46;;;;;;;7.27;2.23;;;;;;;;;;1752958;79;21537;-55
2022/11/30 12:14:14;;;;;;;7.47;2.07;;;;;;;;;;1747621;79;21073;-55
2022/11/30 12:17:12;;;;;;;7.73;1.90;;;;;;;;;;1756195;79;21056;-54
2022/11/30 12:20:05;;;;;;;6.80;1.37;;;;;;;;;;1745808;79;21937;-53
2022/11/30 12:22:56;;;;;;;6.87;1.83;;;;;;;;;;1746853;79;21030;-54
2022/11/30 12:25:29;;;;;;;8.57;1.90;;;;;;;;;;1750207;79;21506;-54
2022/11/30 12:28:11;;;;;;;5.13;1.83;;;;;;;;;;1755141;79;21660;-54
2022/11/30 12:30:58;;;;;;;11.43;2.17;;;;;;;;;;1750416;79;21115;-54
2022/11/30 12:33:34;;;;;;;6.53;2.03;;;;;;;;;;1773050;79;21845;-54
2022/11/30 12:36:16;;;;;;;6.67;1.93;;;;;;;;;;1760343;79;21095;-54
2022/11/30 12:39:01;;;;;;;5.20;1.50;;;;;;;;;;1718326;79;21135;-54
2022/11/30 12:41:31;;;;;;;3.55;1.95;;;;;;;;;;1772063;79;21069;-54
2022/11/30 12:44:13;;;;;;;4.23;1.90;;;;;;;;;;1768545;79;21056;-54
2022/11/30 12:46:55;;;;;;;8.53;2.03;;;;;;;;;;1766372;79;21835;-54
2022/11/30 12:49:40;;;;;;;5.87;1.80;;;;;;;;;;1749503;80;21616;-54
2022/11/30 12:52:19;;;;;;;4.93;1.43;;;;;;;;;;1710790;82;21407;-54
2022/11/30 12:54:51;;;;;;;7.27;2.50;;;;;;;;;;1768589;78;21524;-54
2022/11/30 12:57:21;;;;;;;2.80;1.80;;;;;;;;;;1773360;79;21040;-54
2022/11/30 13:00:08;;;;;;;5.20;1.90;;;;;;;;;;1765678;79;21871;-54
2022/11/30 13:02:47;;;;;;;3.30;1.23;;;;;;;;;;1768048;79;21087;-54
2022/11/30 13:05:16;;;;;;;4.37;1.60;;;;;;;;;;1767841;79;21098;-54
2022/11/30 13:07:54;;;;;;;5.63;1.67;;;;;;;;;;1769699;79;21048;-55
2022/11/30 13:10:32;;;;;;;10.80;1.57;;;;;;;;;;1766934;79;21043;-54
2022/11/30 13:12:59;;;;;;;8.00;1.50;;;;;;;;;;1772913;79;22388;-54
2022/11/30 13:15:28;;;;;;;4.97;1.20;;;;;;;;;;1769248;79;21582;-54
2022/11/30 13:17:54;;;;;;;7.10;2.03;;;;;;;;;;1767136;79;21040;-54
2022/11/30 13:20:40;;;;;;;8.07;1.60;;;;;;;;;;1774743;79;22315;-55
2022/11/30 13:23:13;;;;;;;5.47;2.13;;;;;;;;;;1764429;79;21080;-54
2022/11/30 13:26:03;;;;;;;5.57;1.57;;;;;;;;;;1772786;79;21789;-53
2022/11/30 13:28:42;;;;;;;2.97;1.30;;;;;;;;;;1755185;80;21091;-54
2022/11/30 13:31:30;;;;;;;3.07;1.60;;;;;;;;;;1754779;80;21029;-53
2022/11/30 13:33:57;;;;;;;5.77;1.50;;;;;;;;;;1715821;81;21632;-55
2022/11/30 13:36:43;;;;;;;7.80;1.93;;;;;;;;;;1752349;80;21103;-53
2022/11/30 13:39:20;;;;;;;9.43;2.00;;;;;;;;;;1743025;80;21876;-57
2022/11/30 13:41:48;;;;;;;3.93;2.03;;;;;;;;;;1745108;80;21309;-53
2022/11/30 13:44:33;;;;;;;7.47;2.93;;;;;;;;;;1694819;81;21091;-54
2022/11/30 13:47:18;;;;;;;5.70;1.90;;;;;;;;;;1728179;81;21065;-53
2022/11/30 13:49:44;;;;;;;5.17;1.55;;;;;;;;;;1708375;81;21032;-54
2022/11/30 13:52:13;;;;;;;3.50;1.73;;;;;;;;;;1781954;78;21823;-53
2022/11/30 13:54:56;;;;;;;7.23;1.70;;;;;;;;;;1786379;78;21596;-54
2022/11/30 13:57:32;;;;;;;6.80;2.60;;;;;;;;;;1747296;80;21048;-54
2022/11/30 13:59:59;;;;;;;6.13;2.00;;;;;;;;;;1748053;80;21565;-53
2022/11/30 14:02:41;;;;;;;6.53;2.47;;;;;;;;;;1716040;81;21095;-53
2022/11/30 14:05:22;;;;;;;14.10;2.70;;;;;;;;;;1725232;81;21906;-53
2022/11/30 14:08:01;;;;;;;6.03;2.33;;;;;;;;;;1727433;81;21510;-54
2022/11/30 14:10:32;;;;;;;9.43;2.70;;;;;;;;;;1718123;81;21051;-54
2022/11/30 14:13:00;;;;;;;8.27;2.97;;;;;;;;;;1718826;81;21063;-53
2022/11/30 14:15:39;;;;;;;6.87;2.93;;;;;;;;;;1743375;80;21061;-54
2022/11/30 14:18:12;;;;;;;7.53;3.30;;;;;;;;;;1745693;80;21889;-54
2022/11/30 14:21:02;;;;;;;7.73;2.70;;;;;;;;;;1746610;80;21487;-54
2022/11/30 14:23:34;;;;;;;7.70;3.27;;;;;;;;;;1750257;80;21040;-53
2022/11/30 14:28:29;;;;;;;16.77;5.57;;;;;;;;;;1708619;77;75450;-79
2022/11/30 14:30:55;;;;;;;16.93;6.73;;;;;;;;;;1707539;81;21152;-76
2022/11/30 14:33:24;;;;;;;11.73;5.77;;;;;;;;;;1712259;81;22842;-76
2022/11/30 14:35:56;;;;;;;13.33;6.03;;;;;;;;;;1707692;81;21056;-77
2022/11/30 14:38:28;;;;;;;13.93;5.50;;;;;;;;;;1708625;81;21072;-77
2022/11/30 14:40:54;;;;;;;17.03;6.53;;;;;;;;;;1712597;81;21135;-77
2022/11/30 14:43:20;;;;;;;18.20;7.83;;;;;;;;;;1711795;81;21061;-79
2022/11/30 14:45:58;;;;;;;17.80;7.50;;;;;;;;;;1707025;81;21820;-78
2022/11/30 14:48:24;;;;;;;14.03;5.37;;;;;;;;;;1711854;81;21659;-77
2022/11/30 14:50:52;;;;;;;10.73;4.70;;;;;;;;;;1703236;80;21083;-78
2022/11/30 14:53:52;;;;;;;13.57;7.43;;;;;;;;;;1704910;81;21121;-78
2022/11/30 14:56:28;;;;;;;11.00;3.93;;;;;;;;;;1707957;81;21128;-77
2022/11/30 14:58:58;;;;;;;11.43;4.60;;;;;;;;;;1710447;81;21884;-77
2022/11/30 15:01:25;;;;;;;11.33;4.27;;;;;;;;;;1706874;81;21057;-77
2022/11/30 15:03:54;;;;;;;13.70;4.23;;;;;;;;;;1710866;81;21069;-78
2022/11/30 15:06:21;;;;;;;13.53;4.27;;;;;;;;;;1712456;81;21078;-79
2022/11/30 15:08:51;;;;;;;12.27;4.67;;;;;;;;;;1706926;81;21017;-79
2022/11/30 15:11:18;;;;;;;15.30;5.17;;;;;;;;;;1709233;82;22472;-80
2022/11/30 15:13:48;;;;;;;16.00;5.13;;;;;;;;;;1705538;81;21129;-80
2022/11/30 15:16:27;;;;;;;13.30;4.63;;;;;;;;;;1715331;81;21685;-77
2022/11/30 15:18:54;;;;;;;12.67;6.03;;;;;;;;;;1707696;81;21572;-77